Time;durP1;ratioP1;P1;durP2;ratioP2;P2;SDS_P1;SDS_P2;PMS_P1;PMS_P2;Temp;Humidity;BMP_temperature;BMP_pressure;BME280_temperature;BME280_humidity;BME280_pressure;Samples;Min_cycle;Max_cycle;Signal;HPM_P1;HPM_P2
2023/08/09 00:00:59;;;;;;;2.40;0.88;;;;;;;;;;6238873;28;20054;-88
2023/08/09 00:04:00;;;;;;;4.20;1.00;;;;;;;;;;6239018;28;20053;-88
2023/08/09 00:07:02;;;;;;;1.90;0.90;;;;;;;;;;6239678;28;20050;-87
2023/08/09 00:10:05;;;;;;;1.67;0.95;;;;;;;;;;6240995;28;20108;-87
2023/08/09 00:13:06;;;;;;;;;;;;;;;;;;6237669;28;20110;-88
2023/08/09 00:16:08;;;;;;;1.88;0.90;;;;;;;;;;6240576;28;19925;-87
2023/08/09 00:19:10;;;;;;;2.80;1.05;;;;;;;;;;6241365;28;20081;-87
2023/08/09 00:22:11;;;;;;;1.95;0.80;;;;;;;;;;6237121;28;20065;-88
2023/08/09 00:25:15;;;;;;;1.75;0.70;;;;;;;;;;6237098;28;20052;-88
2023/08/09 00:28:16;;;;;;;1.60;1.02;;;;;;;;;;6236677;28;20233;-87
2023/08/09 00:31:18;;;;;;;1.35;0.90;;;;;;;;;;6240706;28;20056;-88
2023/08/09 00:34:19;;;;;;;1.60;0.88;;;;;;;;;;6238232;28;20049;-88
2023/08/09 00:37:21;;;;;;;4.00;1.02;;;;;;;;;;6238468;28;20155;-88
2023/08/09 00:40:24;;;;;;;2.63;1.00;;;;;;;;;;6236368;28;20049;-86
2023/08/09 00:43:26;;;;;;;4.20;1.35;;;;;;;;;;6237512;28;20345;-88
2023/08/09 00:46:27;;;;;;;2.47;1.48;;;;;;;;;;6238635;28;20056;-88
2023/08/09 00:49:29;;;;;;;3.47;1.25;;;;;;;;;;6235387;28;20037;-87
2023/08/09 00:52:30;;;;;;;2.70;1.20;;;;;;;;;;6239829;28;20062;-88
2023/08/09 00:55:33;;;;;;;2.20;1.02;;;;;;;;;;6242265;28;20063;-89
2023/08/09 00:58:35;;;;;;;4.05;1.25;;;;;;;;;;6238773;28;20061;-84
2023/08/09 01:01:36;;;;;;;3.75;1.40;;;;;;;;;;6245656;28;20108;-87
2023/08/09 01:04:38;;;;;;;1.65;0.98;;;;;;;;;;6245652;28;20041;-87
2023/08/09 01:07:42;;;;;;;2.60;1.13;;;;;;;;;;6243465;28;20042;-88
2023/08/09 01:10:49;;;;;;;5.15;1.60;;;;;;;;;;6241371;28;20083;-87
2023/08/09 01:13:52;;;;;;;5.55;1.25;;;;;;;;;;6242363;28;20350;-88
2023/08/09 01:16:54;;;;;;;3.90;1.10;;;;;;;;;;6241285;28;20068;-88
2023/08/09 01:19:56;;;;;;;6.43;1.45;;;;;;;;;;6243044;28;20056;-86
2023/08/09 01:23:00;;;;;;;1.67;1.10;;;;;;;;;;6242880;28;20063;-87
2023/08/09 01:26:04;;;;;;;3.03;1.10;;;;;;;;;;6241736;28;20112;-84
2023/08/09 01:29:06;;;;;;;3.03;1.00;;;;;;;;;;6240855;28;20053;-87
2023/08/09 01:32:07;;;;;;;2.88;1.20;;;;;;;;;;6241797;28;20054;-88
2023/08/09 01:35:09;;;;;;;3.08;1.02;;;;;;;;;;6243664;28;20045;-90
2023/08/09 01:38:13;;;;;;;1.38;1.10;;;;;;;;;;6240681;28;20103;-88
2023/08/09 01:41:16;;;;;;;2.80;1.20;;;;;;;;;;6242368;28;20365;-88
2023/08/09 01:44:17;;;;;;;3.13;0.88;;;;;;;;;;6241362;28;20064;-89
2023/08/09 01:47:19;;;;;;;2.80;1.00;;;;;;;;;;6241262;28;20065;-87
2023/08/09 01:50:21;;;;;;;2.17;1.30;;;;;;;;;;6238274;28;20113;-83
2023/08/09 01:53:23;;;;;;;3.03;1.05;;;;;;;;;;6240647;28;20061;-84
2023/08/09 01:56:25;;;;;;;3.88;1.20;;;;;;;;;;6242931;28;20060;-89
2023/08/09 01:59:27;;;;;;;3.58;1.27;;;;;;;;;;6241036;28;20058;-90
2023/08/09 02:02:29;;;;;;;4.77;1.37;;;;;;;;;;6239894;28;20092;-89
2023/08/09 02:05:31;;;;;;;1.83;1.05;;;;;;;;;;6240735;28;20148;-87
2023/08/09 02:08:32;;;;;;;2.08;1.05;;;;;;;;;;6242767;28;20054;-88
2023/08/09 02:11:35;;;;;;;1.75;1.15;;;;;;;;;;6240666;28;20050;-88
2023/08/09 02:14:37;;;;;;;2.05;1.27;;;;;;;;;;6239939;28;20053;-88
2023/08/09 02:17:38;;;;;;;2.30;0.90;;;;;;;;;;6241384;28;20069;-89
2023/08/09 02:20:40;;;;;;;2.65;1.10;;;;;;;;;;6242650;28;20046;-89
2023/08/09 02:23:41;;;;;;;1.88;1.02;;;;;;;;;;6241977;28;21226;-89
2023/08/09 02:26:44;;;;;;;2.45;1.20;;;;;;;;;;6239428;28;20114;-81
2023/08/09 02:29:46;;;;;;;1.90;0.93;;;;;;;;;;6236680;28;20068;-88
2023/08/09 02:32:50;;;;;;;5.68;1.25;;;;;;;;;;6241626;28;20273;-89
2023/08/09 02:35:53;;;;;;;2.90;1.10;;;;;;;;;;6239174;28;20077;-86
2023/08/09 02:38:54;;;;;;;;;;;;;;;;;;6237236;28;20053;-87
2023/08/09 02:41:58;;;;;;;2.20;1.17;;;;;;;;;;6241220;28;19932;-87
2023/08/09 02:45:00;;;;;;;3.50;1.00;;;;;;;;;;6241484;28;20057;-88
2023/08/09 02:48:02;;;;;;;3.92;1.30;;;;;;;;;;6237907;28;20076;-88
2023/08/09 02:51:03;;;;;;;2.78;1.08;;;;;;;;;;6240052;28;20065;-88
2023/08/09 02:54:06;;;;;;;2.05;1.33;;;;;;;;;;6239188;28;20049;-89
2023/08/09 02:57:08;;;;;;;1.77;1.00;;;;;;;;;;6240389;28;20057;-87
2023/08/09 03:03:30;;;;;;;1.90;0.90;;;;;;;;;;6194444;28;20049;-84
2023/08/09 03:06:32;;;;;;;1.65;0.80;;;;;;;;;;6239583;28;20329;-89
2023/08/09 03:09:34;;;;;;;1.67;0.82;;;;;;;;;;6239051;28;20074;-88
2023/08/09 03:12:37;;;;;;;2.67;1.00;;;;;;;;;;6235628;28;20108;-88
2023/08/09 03:15:39;;;;;;;1.95;1.08;;;;;;;;;;6238015;28;20049;-86
2023/08/09 03:18:40;;;;;;;2.50;1.00;;;;;;;;;;6238570;28;20045;-89
2023/08/09 03:21:42;;;;;;;5.30;1.10;;;;;;;;;;6239054;28;20059;-86
2023/08/09 03:24:44;;;;;;;2.42;1.00;;;;;;;;;;6236965;28;20057;-89
2023/08/09 03:27:46;;;;;;;1.67;1.00;;;;;;;;;;6237164;28;20068;-89
2023/08/09 03:30:48;;;;;;;2.63;1.10;;;;;;;;;;6234611;28;20246;-88
2023/08/09 03:33:49;;;;;;;2.33;1.00;;;;;;;;;;6239931;28;20342;-88
2023/08/09 03:36:51;;;;;;;2.15;1.33;;;;;;;;;;6237852;28;20053;-88
2023/08/09 03:39:52;;;;;;;2.47;0.88;;;;;;;;;;6239548;28;20061;-89
2023/08/09 03:42:55;;;;;;;3.38;1.08;;;;;;;;;;6237637;28;20595;-89
2023/08/09 03:45:57;;;;;;;4.05;1.55;;;;;;;;;;6239200;28;20041;-89
2023/08/09 03:48:58;;;;;;;2.13;0.88;;;;;;;;;;6240962;28;20237;-91
2023/08/09 03:52:00;;;;;;;2.53;1.00;;;;;;;;;;6240322;28;20057;-87
2023/08/09 03:55:01;;;;;;;2.65;1.00;;;;;;;;;;6237759;28;20061;-87
2023/08/09 03:58:04;;;;;;;1.77;1.02;;;;;;;;;;6236358;28;20143;-88
2023/08/09 04:01:06;;;;;;;6.30;0.85;;;;;;;;;;6235871;28;20046;-88
2023/08/09 04:04:08;;;;;;;1.35;0.98;;;;;;;;;;6239160;28;20065;-88
2023/08/09 04:07:09;;;;;;;2.25;1.02;;;;;;;;;;6237934;28;20327;-90
2023/08/09 04:10:11;;;;;;;1.75;0.90;;;;;;;;;;6239584;28;20054;-90
2023/08/09 04:13:15;;;;;;;1.77;0.98;;;;;;;;;;6238308;28;20057;-90
2023/08/09 04:16:16;;;;;;;2.08;1.23;;;;;;;;;;6237616;28;20057;-81
2023/08/09 04:19:18;;;;;;;5.82;1.30;;;;;;;;;;6238450;28;20341;-84
2023/08/09 04:22:19;;;;;;;2.03;1.00;;;;;;;;;;6236627;28;20050;-89
2023/08/09 04:25:21;;;;;;;4.25;1.13;;;;;;;;;;6239096;28;20064;-88
2023/08/09 04:28:24;;;;;;;2.60;0.98;;;;;;;;;;6240508;28;20121;-89
2023/08/09 04:31:26;;;;;;;1.93;1.20;;;;;;;;;;6241803;28;20050;-90
2023/08/09 04:34:28;;;;;;;1.50;0.82;;;;;;;;;;6242873;28;20750;-86
2023/08/09 04:37:30;;;;;;;2.65;1.10;;;;;;;;;;6240205;28;20054;-87
2023/08/09 04:40:31;;;;;;;5.25;1.00;;;;;;;;;;6242034;28;20069;-88
2023/08/09 04:43:34;;;;;;;3.13;1.27;;;;;;;;;;6242080;28;20053;-87
2023/08/09 04:46:36;;;;;;;4.20;1.20;;;;;;;;;;6243550;28;20092;-86
2023/08/09 04:49:38;;;;;;;2.45;1.00;;;;;;;;;;6244616;28;20855;-89
2023/08/09 04:52:39;;;;;;;3.03;0.95;;;;;;;;;;6241814;28;20288;-89
2023/08/09 04:55:41;;;;;;;3.47;1.13;;;;;;;;;;6241232;28;20057;-87
2023/08/09 04:58:44;;;;;;;1.98;1.05;;;;;;;;;;6242801;28;20050;-89
2023/08/09 05:01:45;;;;;;;1.90;1.10;;;;;;;;;;6239662;28;20341;-89
2023/08/09 05:04:47;;;;;;;2.67;1.15;;;;;;;;;;6244114;28;20054;-90
2023/08/09 05:07:48;;;;;;;1.73;1.02;;;;;;;;;;6242087;28;20047;-89
2023/08/09 05:10:49;;;;;;;5.50;1.30;;;;;;;;;;6243608;28;21916;-89
2023/08/09 05:13:52;;;;;;;2.08;1.10;;;;;;;;;;6240890;28;20054;-88
2023/08/09 05:16:54;;;;;;;2.20;0.82;;;;;;;;;;6241890;28;20307;-89
2023/08/09 05:19:55;;;;;;;3.60;1.15;;;;;;;;;;6243251;28;20365;-87
2023/08/09 05:22:58;;;;;;;2.60;0.90;;;;;;;;;;6240930;28;20057;-89
2023/08/09 05:25:59;;;;;;;2.57;1.23;;;;;;;;;;6243879;28;20060;-87
2023/08/09 05:29:02;;;;;;;4.60;1.40;;;;;;;;;;6241316;28;20249;-85
2023/08/09 05:32:04;;;;;;;3.15;1.52;;;;;;;;;;6241126;28;20050;-85
2023/08/09 05:35:06;;;;;;;2.15;1.10;;;;;;;;;;6240757;28;20143;-89
2023/08/09 05:38:07;;;;;;;4.03;1.70;;;;;;;;;;6241341;28;20053;-87
2023/08/09 05:41:09;;;;;;;1.90;1.20;;;;;;;;;;6239453;28;20045;-90
2023/08/09 05:44:12;;;;;;;5.22;1.40;;;;;;;;;;6244482;28;20053;-89
2023/08/09 05:47:13;;;;;;;3.63;1.23;;;;;;;;;;6241620;28;20042;-88
2023/08/09 05:50:15;;;;;;;3.83;1.50;;;;;;;;;;6242908;28;20157;-88
2023/08/09 05:53:16;;;;;;;3.15;1.30;;;;;;;;;;6243402;28;20049;-85
2023/08/09 05:56:19;;;;;;;4.20;1.45;;;;;;;;;;6240592;28;20104;-86
2023/08/09 05:59:21;;;;;;;1.73;1.13;;;;;;;;;;6239685;28;20045;-88
2023/08/09 06:02:24;;;;;;;4.68;1.52;;;;;;;;;;6242521;28;20062;-88
2023/08/09 06:05:26;;;;;;;2.35;1.30;;;;;;;;;;6239971;28;20230;-87
2023/08/09 06:08:27;;;;;;;3.45;1.25;;;;;;;;;;6242426;28;20069;-87
2023/08/09 06:11:29;;;;;;;3.15;1.30;;;;;;;;;;6240673;28;20054;-87
2023/08/09 06:14:31;;;;;;;5.63;1.65;;;;;;;;;;6240550;28;20052;-89
2023/08/09 06:17:36;;;;;;;2.70;1.60;;;;;;;;;;6240075;28;20061;-87
2023/08/09 06:20:37;;;;;;;2.63;1.33;;;;;;;;;;6239731;28;20049;-89
2023/08/09 06:23:39;;;;;;;2.17;1.42;;;;;;;;;;6240143;28;20354;-89
2023/08/09 06:26:40;;;;;;;6.45;1.40;;;;;;;;;;6241403;28;20061;-88
2023/08/09 06:29:43;;;;;;;6.18;1.90;;;;;;;;;;6238062;28;20714;-86
2023/08/09 06:32:44;;;;;;;3.45;1.40;;;;;;;;;;6239720;28;20059;-87
2023/08/09 06:35:46;;;;;;;4.30;1.63;;;;;;;;;;6241385;28;20138;-87
2023/08/09 06:38:48;;;;;;;5.72;1.35;;;;;;;;;;6238911;28;20049;-87
2023/08/09 06:41:50;;;;;;;3.25;1.52;;;;;;;;;;6237894;28;20049;-82
2023/08/09 06:44:52;;;;;;;3.08;1.30;;;;;;;;;;6241721;28;20535;-88
2023/08/09 06:47:55;;;;;;;2.67;1.33;;;;;;;;;;6241844;28;20318;-88
2023/08/09 06:50:57;;;;;;;3.83;1.30;;;;;;;;;;6237874;28;20116;-89
2023/08/09 06:53:59;;;;;;;10.82;1.52;;;;;;;;;;6240571;28;20349;-89
2023/08/09 06:57:00;;;;;;;4.90;1.83;;;;;;;;;;6238979;28;20061;-88
2023/08/09 07:00:04;;;;;;;3.88;1.52;;;;;;;;;;6238590;28;20249;-88
2023/08/09 07:03:05;;;;;;;;;;;;;;;;;;6241107;28;20629;-82
2023/08/09 07:06:06;;;;;;;3.65;1.10;;;;;;;;;;6239181;28;19947;-88
2023/08/09 07:09:11;;;;;;;4.18;1.35;;;;;;;;;;6239273;28;20368;-87
2023/08/09 07:12:12;;;;;;;1.95;1.25;;;;;;;;;;6238581;28;20061;-88
2023/08/09 07:15:15;;;;;;;2.17;1.20;;;;;;;;;;6238344;28;20053;-86
2023/08/09 07:18:16;;;;;;;3.50;1.25;;;;;;;;;;6237538;28;20060;-88
2023/08/09 07:21:18;;;;;;;5.32;1.30;;;;;;;;;;6236405;28;20372;-89
2023/08/09 07:24:19;;;;;;;2.42;1.05;;;;;;;;;;6239125;28;20341;-84
2023/08/09 07:27:21;;;;;;;1.98;1.17;;;;;;;;;;6236081;28;20053;-89
2023/08/09 07:30:24;;;;;;;7.32;1.33;;;;;;;;;;6240275;28;20250;-87
2023/08/09 07:33:26;;;;;;;2.60;1.00;;;;;;;;;;6238223;28;20050;-88
2023/08/09 07:36:27;;;;;;;7.00;1.15;;;;;;;;;;6241321;28;20095;-87
2023/08/09 07:39:28;;;;;;;3.50;1.00;;;;;;;;;;6241848;28;20060;-87
2023/08/09 07:42:30;;;;;;;2.22;1.45;;;;;;;;;;6264456;28;20388;-85
2023/08/09 07:45:33;;;;;;;3.28;1.10;;;;;;;;;;6263478;28;21091;-88
2023/08/09 07:48:35;;;;;;;3.53;1.00;;;;;;;;;;6264621;28;20045;-88
2023/08/09 07:51:36;;;;;;;3.30;1.20;;;;;;;;;;6260552;28;20060;-85
2023/08/09 07:54:38;;;;;;;4.03;1.20;;;;;;;;;;6263904;28;20053;-88
2023/08/09 07:57:39;;;;;;;3.17;1.30;;;;;;;;;;6264339;28;20053;-85
2023/08/09 08:00:42;;;;;;;2.30;1.23;;;;;;;;;;6262700;28;20260;-84
2023/08/09 08:03:44;;;;;;;;;;;;;;;;;;6258812;28;20103;-85
2023/08/09 08:06:46;;;;;;;4.80;1.17;;;;;;;;;;6266500;28;19956;-84
2023/08/09 08:09:47;;;;;;;3.03;1.20;;;;;;;;;;6268604;28;20049;-85
2023/08/09 08:12:52;;;;;;;5.22;1.60;;;;;;;;;;6270080;28;20065;-85
2023/08/09 08:15:55;;;;;;;3.50;1.48;;;;;;;;;;6265985;28;20076;-85
2023/08/09 08:18:57;;;;;;;8.63;1.58;;;;;;;;;;6268188;28;20053;-86
2023/08/09 08:22:00;;;;;;;5.05;1.83;;;;;;;;;;6267485;28;20116;-84
2023/08/09 08:25:04;;;;;;;6.28;1.23;;;;;;;;;;6269397;28;20065;-82
2023/08/09 08:28:06;;;;;;;2.42;1.42;;;;;;;;;;6266668;28;20063;-85
2023/08/09 08:31:19;;;;;;;;;;;;;;;;;;;;;
2023/08/09 08:34:31;;;;;;;3.55;1.20;;;;;;;;;;6351188;27;1321708;-79
2023/08/09 08:37:33;;;;;;;5.30;1.75;;;;;;;;;;6343051;27;20350;-81
2023/08/09 08:40:35;;;;;;;5.80;1.43;;;;;;;;;;6337006;28;20056;-80
2023/08/09 08:43:36;;;;;;;4.88;1.23;;;;;;;;;;6364058;27;21628;-81
2023/08/09 08:46:38;;;;;;;3.95;1.35;;;;;;;;;;6366433;27;20412;-79
2023/08/09 08:49:44;;;;;;;1.70;1.20;;;;;;;;;;6340374;27;20071;-79
2023/08/09 08:52:46;;;;;;;10.93;1.38;;;;;;;;;;6342953;28;20494;-80
2023/08/09 08:55:48;;;;;;;3.90;1.40;;;;;;;;;;6341688;28;20195;-79
2023/08/09 08:58:50;;;;;;;3.58;1.33;;;;;;;;;;6338945;28;20060;-80
2023/08/09 09:01:51;;;;;;;5.18;1.42;;;;;;;;;;6336297;28;20071;-81
2023/08/09 09:04:54;;;;;;;4.55;1.23;;;;;;;;;;6339083;28;20058;-80
2023/08/09 09:07:57;;;;;;;6.10;1.77;;;;;;;;;;6339769;28;20060;-80
2023/08/09 09:10:59;;;;;;;4.50;1.40;;;;;;;;;;6338920;28;20043;-81
2023/08/09 09:14:01;;;;;;;4.63;1.37;;;;;;;;;;6339275;28;20258;-81
2023/08/09 09:17:03;;;;;;;5.78;1.83;;;;;;;;;;6339496;28;20063;-80
2023/08/09 09:20:10;;;;;;;5.30;1.60;;;;;;;;;;6340397;28;20043;-82
2023/08/09 09:23:24;;;;;;;3.50;1.40;;;;;;;;;;6356391;27;20517;-80
2023/08/09 09:26:25;;;;;;;2.95;1.33;;;;;;;;;;6340536;28;20064;-80
2023/08/09 09:29:31;;;;;;;3.50;1.35;;;;;;;;;;6336240;27;20065;-79
2023/08/09 09:32:33;;;;;;;4.18;1.65;;;;;;;;;;6332121;28;20136;-80
2023/08/09 09:35:36;;;;;;;2.47;1.30;;;;;;;;;;6346770;27;20044;-81
2023/08/09 09:38:38;;;;;;;4.28;1.20;;;;;;;;;;6330874;28;20063;-79
2023/08/09 09:41:46;;;;;;;3.60;1.58;;;;;;;;;;6331541;28;20058;-81
2023/08/09 09:44:47;;;;;;;5.60;1.70;;;;;;;;;;6323564;28;20047;-81
2023/08/09 09:47:49;;;;;;;3.80;1.50;;;;;;;;;;6315627;28;20067;-80
2023/08/09 09:50:52;;;;;;;5.67;1.60;;;;;;;;;;6316787;28;20235;-79
2023/08/09 09:53:53;;;;;;;3.47;1.30;;;;;;;;;;6315823;28;20067;-81
2023/08/09 09:56:55;;;;;;;4.75;1.63;;;;;;;;;;6315104;28;20056;-80
2023/08/09 09:59:58;;;;;;;6.20;1.77;;;;;;;;;;6313868;28;20063;-82
2023/08/09 10:03:00;;;;;;;3.33;1.52;;;;;;;;;;6315159;28;20474;-80
2023/08/09 10:06:03;;;;;;;3.67;1.35;;;;;;;;;;6315340;28;20055;-79
2023/08/09 10:09:05;;;;;;;5.65;1.60;;;;;;;;;;6313589;28;20272;-81
2023/08/09 10:12:07;;;;;;;;;;;;;;;;;;6313991;28;20052;-81
2023/08/09 10:15:10;;;;;;;4.73;1.50;;;;;;;;;;6315846;28;19987;-81
2023/08/09 10:18:13;;;;;;;3.13;1.83;;;;;;;;;;6314576;28;20056;-79
2023/08/09 10:21:18;;;;;;;4.65;1.60;;;;;;;;;;6316557;28;20348;-78
2023/08/09 10:24:20;;;;;;;6.80;1.50;;;;;;;;;;6317012;28;20045;-83
2023/08/09 10:27:39;;;;;;;3.55;1.70;;;;;;;;;;6315044;28;20377;-81
2023/08/09 10:30:45;;;;;;;4.70;1.80;;;;;;;;;;6316270;28;20056;-81
2023/08/09 10:34:08;;;;;;;5.82;1.75;;;;;;;;;;6317961;28;20129;-81
2023/08/09 10:37:12;;;;;;;3.22;1.55;;;;;;;;;;6313975;28;20098;-83
2023/08/09 10:40:15;;;;;;;2.85;1.73;;;;;;;;;;6314170;28;20108;-80
2023/08/09 10:43:18;;;;;;;4.55;1.63;;;;;;;;;;6316959;28;20052;-81
2023/08/09 10:46:20;;;;;;;5.88;1.90;;;;;;;;;;6317254;28;20036;-81
2023/08/09 10:49:32;;;;;;;5.30;1.90;;;;;;;;;;6315897;28;20056;-81
2023/08/09 10:52:36;;;;;;;2.92;1.80;;;;;;;;;;6314630;28;20056;-81
2023/08/09 10:55:38;;;;;;;5.90;1.80;;;;;;;;;;6312670;28;20308;-82
2023/08/09 10:58:40;;;;;;;3.50;1.50;;;;;;;;;;6314572;28;20049;-79
2023/08/09 11:01:42;;;;;;;2.88;1.55;;;;;;;;;;6313955;28;20052;-81
2023/08/09 11:04:44;;;;;;;4.45;1.80;;;;;;;;;;6316778;28;20068;-81
2023/08/09 11:07:48;;;;;;;4.75;1.80;;;;;;;;;;6312152;28;20060;-81
2023/08/09 11:10:50;;;;;;;6.30;2.10;;;;;;;;;;6312458;28;20134;-80
2023/08/09 11:13:52;;;;;;;5.07;1.58;;;;;;;;;;6313445;28;20082;-80
2023/08/09 11:16:53;;;;;;;3.53;1.40;;;;;;;;;;6315099;28;20116;-80
2023/08/09 11:19:55;;;;;;;4.10;1.52;;;;;;;;;;6315244;28;20052;-81
2023/08/09 11:22:58;;;;;;;5.05;1.65;;;;;;;;;;6313212;28;20352;-81
2023/08/09 11:26:01;;;;;;;4.72;1.35;;;;;;;;;;6315066;28;20130;-81
2023/08/09 11:29:03;;;;;;;5.35;1.88;;;;;;;;;;6313095;28;20060;-80
2023/08/09 11:32:05;;;;;;;5.45;1.90;;;;;;;;;;6314339;28;20044;-81
2023/08/09 11:35:07;;;;;;;3.83;2.05;;;;;;;;;;6316518;28;20335;-80
2023/08/09 11:38:10;;;;;;;3.17;1.50;;;;;;;;;;6311661;28;20069;-81
2023/08/09 11:41:21;;;;;;;3.25;1.60;;;;;;;;;;6312210;28;20059;-81
2023/08/09 11:44:25;;;;;;;3.05;1.42;;;;;;;;;;6315583;28;20043;-80
2023/08/09 11:47:27;;;;;;;4.47;1.60;;;;;;;;;;6312607;28;20142;-81
2023/08/09 11:50:29;;;;;;;2.95;1.60;;;;;;;;;;6311397;28;20061;-81
2023/08/09 11:53:32;;;;;;;2.08;1.60;;;;;;;;;;6313366;28;20052;-81
2023/08/09 11:56:35;;;;;;;3.13;1.23;;;;;;;;;;6314518;28;20079;-81
2023/08/09 11:59:39;;;;;;;3.08;1.48;;;;;;;;;;6313261;28;20056;-81
2023/08/09 12:02:40;;;;;;;4.30;1.75;;;;;;;;;;6310923;28;20052;-81
2023/08/09 12:05:42;;;;;;;3.92;1.58;;;;;;;;;;6312530;28;20102;-81
2023/08/09 12:08:45;;;;;;;5.35;1.35;;;;;;;;;;6314388;28;20048;-80
2023/08/09 12:11:49;;;;;;;4.00;1.50;;;;;;;;;;6310984;28;20102;-80
2023/08/09 12:14:52;;;;;;;2.47;1.52;;;;;;;;;;6314157;28;20089;-80
2023/08/09 12:17:54;;;;;;;3.78;1.73;;;;;;;;;;6314032;28;20053;-82
2023/08/09 12:20:56;;;;;;;3.58;1.58;;;;;;;;;;6313011;28;20070;-82
2023/08/09 12:23:59;;;;;;;2.67;1.60;;;;;;;;;;6314579;28;20055;-83
2023/08/09 12:27:00;;;;;;;3.67;2.05;;;;;;;;;;6311664;28;20044;-80
2023/08/09 12:30:02;;;;;;;5.40;1.70;;;;;;;;;;6313075;28;20059;-81
2023/08/09 12:33:08;;;;;;;3.95;1.30;;;;;;;;;;6311965;28;20051;-81
2023/08/09 12:36:10;;;;;;;5.20;1.45;;;;;;;;;;6310191;28;20102;-80
2023/08/09 12:39:14;;;;;;;5.05;1.60;;;;;;;;;;6311772;28;20347;-80
2023/08/09 12:42:15;;;;;;;2.97;1.80;;;;;;;;;;6312704;28;20081;-81
2023/08/09 12:45:17;;;;;;;3.47;1.55;;;;;;;;;;6311765;28;20045;-81
2023/08/09 12:48:18;;;;;;;3.25;1.45;;;;;;;;;;6314989;28;20053;-81
2023/08/09 12:51:22;;;;;;;;;;;;;;;;;;6313350;28;20052;-82
2023/08/09 12:54:25;;;;;;;3.50;1.42;;;;;;;;;;6312903;28;20220;-81
2023/08/09 12:57:26;;;;;;;4.03;1.70;;;;;;;;;;6309393;28;20075;-82
2023/08/09 13:00:28;;;;;;;2.92;1.52;;;;;;;;;;6313992;28;20055;-81
2023/08/09 13:03:30;;;;;;;3.10;1.70;;;;;;;;;;6312737;28;20057;-82
2023/08/09 13:06:32;;;;;;;2.90;1.70;;;;;;;;;;6311160;28;20113;-81
2023/08/09 13:09:36;;;;;;;3.50;1.30;;;;;;;;;;6307590;28;20053;-81
2023/08/09 13:12:37;;;;;;;6.63;1.25;;;;;;;;;;6310318;28;20102;-81
2023/08/09 13:18:58;;;;;;;2.20;1.35;;;;;;;;;;6279553;28;20044;-82
2023/08/09 13:22:00;;;;;;;2.50;1.40;;;;;;;;;;6314131;28;20058;-81
2023/08/09 13:25:34;;;;;;;2.78;1.58;;;;;;;;;;6313781;28;20506;-79
2023/08/09 13:28:37;;;;;;;3.70;1.23;;;;;;;;;;6314918;28;20044;-81
2023/08/09 13:31:39;;;;;;;2.78;1.50;;;;;;;;;;6317719;28;20060;-81
2023/08/09 13:34:41;;;;;;;5.80;1.50;;;;;;;;;;6319365;28;20056;-79
2023/08/09 13:37:42;;;;;;;2.75;1.38;;;;;;;;;;6313415;28;20040;-81
2023/08/09 13:40:44;;;;;;;4.78;1.58;;;;;;;;;;6315574;28;20222;-81
2023/08/09 13:43:46;;;;;;;;;;;;;;;;;;6321742;28;20139;-81
2023/08/09 13:46:49;;;;;;;4.05;1.23;;;;;;;;;;6316223;28;19922;-81
2023/08/09 13:49:55;;;;;;;2.90;1.27;;;;;;;;;;6317411;28;20054;-81
2023/08/09 13:52:56;;;;;;;4.32;1.45;;;;;;;;;;6312046;28;20048;-81
2023/08/09 13:55:59;;;;;;;4.38;1.30;;;;;;;;;;6316839;28;20125;-81
2023/08/09 13:59:00;;;;;;;3.45;1.55;;;;;;;;;;6313012;28;20233;-81
2023/08/09 14:02:03;;;;;;;3.50;1.52;;;;;;;;;;6313248;28;20048;-81
2023/08/09 14:05:06;;;;;;;2.00;1.30;;;;;;;;;;6316002;28;20052;-81
2023/08/09 14:08:07;;;;;;;4.35;1.40;;;;;;;;;;6319422;28;20150;-81
2023/08/09 14:11:08;;;;;;;;;;;;;;;;;;6315144;28;20044;-82
2023/08/09 14:14:10;;;;;;;2.50;1.40;;;;;;;;;;6315817;28;20340;-80
2023/08/09 14:17:13;;;;;;;1.80;1.13;;;;;;;;;;6314148;28;20051;-81
2023/08/09 14:20:24;;;;;;;2.38;1.33;;;;;;;;;;6316820;28;20123;-82
2023/08/09 14:23:25;;;;;;;3.65;1.20;;;;;;;;;;6315903;28;20481;-81
2023/08/09 14:30:01;;;;;;;2.92;1.25;;;;;;;;;;6248081;28;20264;-80
2023/08/09 14:33:07;;;;;;;10.43;1.88;;;;;;;;;;6315641;28;20059;-81
2023/08/09 14:36:12;;;;;;;3.70;1.30;;;;;;;;;;6315213;28;20079;-81
2023/08/09 14:39:35;;;;;;;2.20;1.65;;;;;;;;;;6303750;28;20353;-81
2023/08/09 14:43:02;;;;;;;2.35;1.10;;;;;;;;;;6318889;28;20056;-79
2023/08/09 14:46:04;;;;;;;2.47;1.50;;;;;;;;;;6319252;28;20056;-81
2023/08/09 14:49:11;;;;;;;2.25;1.48;;;;;;;;;;6305864;28;20314;-81
2023/08/09 14:55:28;;;;;;;1.98;1.40;;;;;;;;;;6319209;28;20048;-81
2023/08/09 14:58:30;;;;;;;4.38;1.40;;;;;;;;;;6308744;28;20064;-81
2023/08/09 15:01:32;;;;;;;2.60;1.33;;;;;;;;;;6317620;28;20052;-81
2023/08/09 15:04:36;;;;;;;2.67;1.48;;;;;;;;;;6316265;28;20137;-82
2023/08/09 15:07:38;;;;;;;2.92;1.50;;;;;;;;;;6315202;28;20371;-81
2023/08/09 15:10:39;;;;;;;;;;;;;;;;;;6315482;28;20073;-80
2023/08/09 15:13:40;;;;;;;5.28;1.50;;;;;;;;;;6315198;28;20193;-81
2023/08/09 15:16:42;;;;;;;3.35;1.50;;;;;;;;;;6313316;28;20082;-81
2023/08/09 15:19:45;;;;;;;1.80;1.30;;;;;;;;;;6313921;28;20059;-80
2023/08/09 15:22:48;;;;;;;2.60;1.33;;;;;;;;;;6314434;28;20071;-81
2023/08/09 15:25:49;;;;;;;3.42;1.40;;;;;;;;;;6303748;28;20107;-81
2023/08/09 15:28:53;;;;;;;1.73;1.33;;;;;;;;;;6314629;28;20052;-81
2023/08/09 15:31:54;;;;;;;2.53;1.50;;;;;;;;;;6318914;27;20074;-81
2023/08/09 15:35:01;;;;;;;7.78;1.48;;;;;;;;;;6315670;28;20418;-81
2023/08/09 15:38:02;;;;;;;2.15;1.35;;;;;;;;;;6315244;28;20047;-81
2023/08/09 15:41:04;;;;;;;2.92;1.60;;;;;;;;;;6313028;28;20090;-81
2023/08/09 15:44:06;;;;;;;2.15;1.40;;;;;;;;;;6313966;28;20097;-81
2023/08/09 15:47:07;;;;;;;;;;;;;;;;;;6314005;28;20060;-81
2023/08/09 15:50:11;;;;;;;7.30;1.38;;;;;;;;;;6313607;28;20269;-81
2023/08/09 15:53:13;;;;;;;2.90;1.20;;;;;;;;;;6312960;28;20078;-81
2023/08/09 15:56:15;;;;;;;1.98;1.20;;;;;;;;;;6309420;28;20040;-81
2023/08/09 15:59:17;;;;;;;2.90;1.20;;;;;;;;;;6314736;28;20064;-81
2023/08/09 16:05:37;;;;;;;2.00;1.20;;;;;;;;;;6310445;28;20040;-80
2023/08/09 16:08:39;;;;;;;3.38;1.40;;;;;;;;;;6313446;28;20056;-81
2023/08/09 16:11:41;;;;;;;2.93;1.20;;;;;;;;;;6303429;28;20052;-81
2023/08/09 16:14:42;;;;;;;2.17;1.20;;;;;;;;;;6311707;28;20344;-81
2023/08/09 16:17:44;;;;;;;3.27;1.47;;;;;;;;;;6313438;28;20080;-79
2023/08/09 16:20:47;;;;;;;2.33;1.70;;;;;;;;;;6314909;28;20063;-81
2023/08/09 16:23:49;;;;;;;1.77;1.02;;;;;;;;;;6311781;28;20871;-81
2023/08/09 16:26:50;;;;;;;4.75;1.15;;;;;;;;;;6310688;28;20048;-80
2023/08/09 16:29:52;;;;;;;1.90;1.00;;;;;;;;;;6310286;28;20052;-80
2023/08/09 16:32:54;;;;;;;6.25;1.50;;;;;;;;;;6312231;28;20466;-81
2023/08/09 16:35:59;;;;;;;3.17;1.63;;;;;;;;;;6313609;28;20401;-80
2023/08/09 16:39:01;;;;;;;1.80;1.10;;;;;;;;;;6309753;28;20244;-80
2023/08/09 16:42:02;;;;;;;3.17;1.40;;;;;;;;;;6313258;28;20051;-81
2023/08/09 16:45:04;;;;;;;3.15;1.00;;;;;;;;;;6314811;28;20325;-79
2023/08/09 16:48:06;;;;;;;1.90;1.05;;;;;;;;;;6310267;28;20274;-81
2023/08/09 16:51:09;;;;;;;2.70;1.20;;;;;;;;;;6310610;28;20062;-81
2023/08/09 16:54:12;;;;;;;6.28;1.85;;;;;;;;;;6317390;28;20055;-81
2023/08/09 16:57:14;;;;;;;1.67;1.10;;;;;;;;;;6317088;28;20240;-81
2023/08/09 17:00:16;;;;;;;2.45;1.35;;;;;;;;;;6315714;28;20048;-81
2023/08/09 17:03:18;;;;;;;3.23;1.10;;;;;;;;;;6319265;28;20057;-81
2023/08/09 17:06:22;;;;;;;4.38;1.30;;;;;;;;;;6316770;28;20347;-81
2023/08/09 17:09:23;;;;;;;2.47;1.17;;;;;;;;;;6321895;28;20048;-81
2023/08/09 17:12:25;;;;;;;1.60;1.17;;;;;;;;;;6316412;28;20060;-81
2023/08/09 17:15:26;;;;;;;3.75;1.38;;;;;;;;;;6316478;28;20324;-80
2023/08/09 17:18:28;;;;;;;2.17;1.20;;;;;;;;;;6316855;28;20060;-80
2023/08/09 17:21:31;;;;;;;6.85;1.30;;;;;;;;;;6319658;28;20051;-81
2023/08/09 17:24:32;;;;;;;1.85;1.13;;;;;;;;;;6320742;28;20056;-81
2023/08/09 17:27:34;;;;;;;3.70;1.30;;;;;;;;;;6316354;27;20132;-81
2023/08/09 17:30:36;;;;;;;2.58;1.20;;;;;;;;;;6317150;28;20055;-79
2023/08/09 17:33:37;;;;;;;5.45;1.30;;;;;;;;;;6314433;28;20051;-81
2023/08/09 17:36:40;;;;;;;4.30;1.35;;;;;;;;;;6315881;28;20094;-81
2023/08/09 17:39:42;;;;;;;2.50;1.25;;;;;;;;;;6316646;28;20056;-81
2023/08/09 17:42:43;;;;;;;3.20;1.50;;;;;;;;;;6316438;28;20056;-81
2023/08/09 17:45:45;;;;;;;2.65;1.48;;;;;;;;;;6315728;28;20241;-81
2023/08/09 17:48:47;;;;;;;4.80;1.40;;;;;;;;;;6315120;28;20115;-80
2023/08/09 17:51:50;;;;;;;4.90;1.33;;;;;;;;;;6315044;28;20060;-82
2023/08/09 17:54:51;;;;;;;4.30;1.35;;;;;;;;;;6316943;28;20101;-81
2023/08/09 17:57:53;;;;;;;3.20;1.30;;;;;;;;;;6314058;28;20048;-81
2023/08/09 18:00:54;;;;;;;5.88;1.33;;;;;;;;;;6316488;28;20056;-81
2023/08/09 18:03:56;;;;;;;2.03;1.25;;;;;;;;;;6318456;28;20296;-81
2023/08/09 18:06:59;;;;;;;2.80;1.42;;;;;;;;;;6313741;28;20076;-81
2023/08/09 18:10:01;;;;;;;3.13;1.50;;;;;;;;;;6315712;28;20078;-80
2023/08/09 18:13:03;;;;;;;1.88;1.20;;;;;;;;;;6317072;28;20053;-80
2023/08/09 18:16:04;;;;;;;3.40;1.30;;;;;;;;;;6316638;28;20116;-81
2023/08/09 18:19:06;;;;;;;1.80;1.10;;;;;;;;;;6314306;28;20079;-81
2023/08/09 18:22:09;;;;;;;2.67;1.30;;;;;;;;;;6315206;28;20055;-81
2023/08/09 18:28:27;;;;;;;6.55;1.40;;;;;;;;;;6310415;28;20039;-81
2023/08/09 18:31:29;;;;;;;2.22;1.35;;;;;;;;;;6314408;28;20073;-81
2023/08/09 18:34:30;;;;;;;2.50;1.38;;;;;;;;;;6314279;28;20367;-81
2023/08/09 18:37:34;;;;;;;3.20;1.63;;;;;;;;;;6314698;28;20055;-81